Time;durP1;ratioP1;P1;durP2;ratioP2;P2;SDS_P1;SDS_P2;PMS_P1;PMS_P2;Temp;Humidity;BMP_temperature;BMP_pressure;BME280_temperature;BME280_humidity;BME280_pressure;Samples;Min_cycle;Max_cycle;Signal;HPM_P1;HPM_P2
2023/06/30 06:11:18;;;;;;;5.68;4.35;;;;;;;;;;6157235;23;20029;-85
2023/06/30 06:13:44;;;;;;;6.43;4.90;;;;;;;;;;6139183;23;20014;-92
2023/06/30 06:16:09;;;;;;;5.35;4.80;;;;;;;;;;6128916;23;20006;-92
2023/06/30 06:18:35;;;;;;;4.93;4.53;;;;;;;;;;6128319;23;20006;-89
2023/06/30 06:21:04;;;;;;;4.85;4.43;;;;;;;;;;6128831;23;20006;-89
2023/06/30 06:23:30;;;;;;;4.75;4.22;;;;;;;;;;6128473;23;20085;-90
2023/06/30 06:25:55;;;;;;;4.82;4.40;;;;;;;;;;6127523;23;20033;-90
2023/06/30 06:28:21;;;;;;;5.07;4.60;;;;;;;;;;6127869;23;20322;-89
2023/06/30 06:30:48;;;;;;;7.00;5.53;;;;;;;;;;6128103;23;20006;-89
2023/06/30 06:33:13;;;;;;;5.88;5.28;;;;;;;;;;6127602;23;20009;-86
2023/06/30 06:35:39;;;;;;;6.72;5.72;;;;;;;;;;6127594;23;20006;-85
2023/06/30 06:38:04;;;;;;;5.68;4.70;;;;;;;;;;6127541;23;20002;-88
2023/06/30 06:40:30;;;;;;;5.10;4.60;;;;;;;;;;6127569;23;20006;-85
2023/06/30 06:42:55;;;;;;;5.57;4.80;;;;;;;;;;6127602;23;20444;-86
2023/06/30 06:45:22;;;;;;;6.30;4.68;;;;;;;;;;6127279;23;20009;-86
2023/06/30 06:48:15;;;;;;;6.10;5.03;;;;;;;;;;6127519;23;20010;-86
2023/06/30 06:50:40;;;;;;;5.32;4.82;;;;;;;;;;6127302;23;20012;-87
2023/06/30 06:53:06;;;;;;;5.80;4.53;;;;;;;;;;6127465;23;20089;-86
2023/06/30 06:55:31;;;;;;;6.13;4.88;;;;;;;;;;6101120;23;20040;-84
2023/06/30 06:57:56;;;;;;;5.45;4.35;;;;;;;;;;6127061;23;20002;-86
2023/06/30 07:00:22;;;;;;;6.00;4.57;;;;;;;;;;6127027;23;20017;-86
2023/06/30 07:02:47;;;;;;;5.90;4.57;;;;;;;;;;6127294;23;20002;-86
2023/06/30 07:05:13;;;;;;;4.53;4.13;;;;;;;;;;6127160;23;20012;-85
2023/06/30 07:07:38;;;;;;;5.50;4.50;;;;;;;;;;6126960;23;20325;-84
2023/06/30 07:10:05;;;;;;;5.70;4.40;;;;;;;;;;6127080;23;20013;-88
2023/06/30 07:12:30;;;;;;;5.07;4.55;;;;;;;;;;6127420;23;20407;-87
2023/06/30 07:14:56;;;;;;;4.10;3.70;;;;;;;;;;6127380;23;19997;-87
2023/06/30 07:17:21;;;;;;;4.65;4.03;;;;;;;;;;6127010;23;20006;-87
2023/06/30 07:19:47;;;;;;;4.97;4.50;;;;;;;;;;6127481;23;20006;-84
2023/06/30 07:22:12;;;;;;;5.55;4.05;;;;;;;;;;6127047;23;20012;-87
2023/06/30 07:24:38;;;;;;;4.78;4.35;;;;;;;;;;6127289;23;20033;-79
2023/06/30 07:27:04;;;;;;;7.95;4.40;;;;;;;;;;6132791;23;20434;-85
2023/06/30 07:29:30;;;;;;;4.30;3.90;;;;;;;;;;6101115;23;20016;-81
2023/06/30 07:31:55;;;;;;;4.70;4.25;;;;;;;;;;6127592;23;20436;-88
2023/06/30 07:34:23;;;;;;;4.93;4.10;;;;;;;;;;6132861;23;20006;-89
2023/06/30 07:36:50;;;;;;;4.45;4.05;;;;;;;;;;6127643;23;20009;-86
2023/06/30 07:39:15;;;;;;;5.45;4.13;;;;;;;;;;6104154;23;20068;-89
2023/06/30 07:41:41;;;;;;;4.90;4.50;;;;;;;;;;6127253;23;20085;-88
2023/06/30 07:44:06;;;;;;;4.70;4.15;;;;;;;;;;6127053;23;20343;-90
2023/06/30 07:46:33;;;;;;;4.28;3.88;;;;;;;;;;6126773;23;20002;-85
2023/06/30 07:48:59;;;;;;;4.43;4.03;;;;;;;;;;6127183;23;20006;-84
2023/06/30 07:51:24;;;;;;;4.95;4.18;;;;;;;;;;6127673;23;20148;-90
2023/06/30 07:53:50;;;;;;;4.40;4.00;;;;;;;;;;6128296;23;20403;-92
2023/06/30 07:56:16;;;;;;;4.82;4.40;;;;;;;;;;6131904;23;20029;-90
2023/06/30 07:58:43;;;;;;;5.60;4.32;;;;;;;;;;6123253;23;20380;-93
2023/06/30 08:01:11;;;;;;;6.55;4.82;;;;;;;;;;6175441;23;20049;-88
2023/06/30 08:03:58;;;;;;;5.78;4.68;;;;;;;;;;6169058;22;19998;-86
2023/06/30 08:06:25;;;;;;;5.82;4.28;;;;;;;;;;6169208;22;20073;-88
2023/06/30 09:31:43;;;;;;;5.25;3.72;;;;;;;;;;6174432;23;20018;-95
2023/06/30 09:34:53;;;;;;;4.18;3.38;;;;;;;;;;6158279;23;20020;-93
2023/06/30 09:37:42;;;;;;;7.68;4.28;;;;;;;;;;6160928;23;20028;-94
2023/06/30 09:40:13;;;;;;;12.07;4.57;;;;;;;;;;6159848;23;20013;-87
2023/06/30 09:42:44;;;;;;;8.05;4.30;;;;;;;;;;6159507;23;20059;-96
2023/06/30 09:45:11;;;;;;;6.32;4.15;;;;;;;;;;6160436;23;20424;-92
2023/06/30 09:47:37;;;;;;;4.40;3.55;;;;;;;;;;6164690;23;20001;-91
2023/06/30 09:50:10;;;;;;;4.43;3.83;;;;;;;;;;6176117;23;20033;-89
2023/06/30 09:52:37;;;;;;;5.18;3.63;;;;;;;;;;6165791;23;20009;-96
2023/06/30 09:55:08;;;;;;;4.55;3.50;;;;;;;;;;6165871;23;20058;-91
2023/06/30 09:57:46;;;;;;;5.18;3.90;;;;;;;;;;6170910;23;20040;-93
2023/06/30 10:00:16;;;;;;;4.05;3.67;;;;;;;;;;6162507;23;20010;-91
2023/06/30 10:02:43;;;;;;;4.47;3.63;;;;;;;;;;6157474;23;20001;-91
2023/06/30 10:05:11;;;;;;;5.95;4.50;;;;;;;;;;6164445;23;20360;-88
2023/06/30 10:07:41;;;;;;;3.97;3.58;;;;;;;;;;6158413;23;20061;-92
2023/06/30 10:10:12;;;;;;;5.85;4.55;;;;;;;;;;6160946;23;20012;-91
2023/06/30 10:12:41;;;;;;;4.10;3.70;;;;;;;;;;6159889;23;20008;-92
2023/06/30 10:15:09;;;;;;;5.23;4.00;;;;;;;;;;6157774;23;20080;-90
2023/06/30 10:17:36;;;;;;;5.05;4.22;;;;;;;;;;6158228;23;20232;-90
2023/06/30 10:20:08;;;;;;;4.32;3.92;;;;;;;;;;6161744;23;20421;-87
2023/06/30 10:22:51;;;;;;;4.60;4.20;;;;;;;;;;6161237;23;20006;-88
2023/06/30 10:25:20;;;;;;;4.45;3.85;;;;;;;;;;6157116;23;20306;-87
2023/06/30 10:27:48;;;;;;;4.47;4.07;;;;;;;;;;6157432;23;20001;-86
2023/06/30 10:30:13;;;;;;;4.55;4.10;;;;;;;;;;6157470;23;20096;-88
2023/06/30 10:32:39;;;;;;;4.53;4.13;;;;;;;;;;6157149;23;20040;-88
2023/06/30 10:35:09;;;;;;;5.00;3.72;;;;;;;;;;6159226;23;20416;-88
2023/06/30 10:37:35;;;;;;;3.75;3.17;;;;;;;;;;6160275;23;20009;-89
2023/06/30 10:40:06;;;;;;;4.57;3.83;;;;;;;;;;6158698;23;20414;-90
2023/06/30 10:42:37;;;;;;;4.07;3.58;;;;;;;;;;6166814;23;20464;-89
2023/06/30 10:45:03;;;;;;;3.75;3.45;;;;;;;;;;6139573;23;20008;-91
2023/06/30 10:47:29;;;;;;;3.90;3.50;;;;;;;;;;6161280;23;20005;-90
2023/06/30 10:49:56;;;;;;;4.00;3.58;;;;;;;;;;6134040;23;20049;-93
2023/06/30 10:52:25;;;;;;;5.10;3.33;;;;;;;;;;6158280;23;20001;-92
2023/06/30 10:54:51;;;;;;;5.22;2.70;;;;;;;;;;6132609;23;20009;-95
2023/06/30 10:57:21;;;;;;;3.70;3.20;;;;;;;;;;6158200;23;20017;-90
2023/06/30 11:00:01;;;;;;;4.80;3.38;;;;;;;;;;6158974;23;20029;-94
2023/06/30 11:02:30;;;;;;;3.97;3.10;;;;;;;;;;6159033;23;20002;-95
2023/06/30 11:05:17;;;;;;;4.43;3.53;;;;;;;;;;6158713;23;19998;-93
2023/06/30 11:07:49;;;;;;;3.90;3.03;;;;;;;;;;6159230;23;19998;-96
2023/06/30 11:10:26;;;;;;;3.50;3.10;;;;;;;;;;6159149;23;20429;-96
2023/06/30 11:12:56;;;;;;;3.33;2.72;;;;;;;;;;6159855;23;20006;-90
2023/06/30 11:15:39;;;;;;;4.43;4.03;;;;;;;;;;6157913;23;20377;-86
2023/06/30 11:18:23;;;;;;;4.07;3.47;;;;;;;;;;6158920;23;20035;-94
2023/06/30 11:21:02;;;;;;;3.85;3.45;;;;;;;;;;6183089;23;19994;-87
2023/06/30 11:23:32;;;;;;;4.15;3.10;;;;;;;;;;6177348;23;20010;-94
2023/06/30 11:26:10;;;;;;;4.68;3.70;;;;;;;;;;6163920;23;20005;-93
2023/06/30 11:28:36;;;;;;;4.85;3.45;;;;;;;;;;6164804;23;20012;-93
2023/06/30 11:31:02;;;;;;;5.15;4.65;;;;;;;;;;6161002;23;20001;-93
2023/06/30 11:33:28;;;;;;;4.63;3.63;;;;;;;;;;6158698;23;20013;-91
2023/06/30 11:35:59;;;;;;;6.20;3.95;;;;;;;;;;6157519;23;20005;-90
2023/06/30 11:38:25;;;;;;;5.53;4.00;;;;;;;;;;6131794;23;20367;-92
2023/06/30 11:40:50;;;;;;;3.50;3.20;;;;;;;;;;6157911;23;20002;-91
2023/06/30 11:43:17;;;;;;;5.93;3.58;;;;;;;;;;6132488;23;20080;-91
2023/06/30 11:45:53;;;;;;;3.97;3.10;;;;;;;;;;6131628;23;20055;-92
2023/06/30 11:48:19;;;;;;;4.25;3.72;;;;;;;;;;6155931;23;20067;-90
2023/06/30 11:50:44;;;;;;;3.60;3.30;;;;;;;;;;6156464;23;20424;-91
2023/06/30 11:53:10;;;;;;;3.88;3.47;;;;;;;;;;6130871;23;20348;-90
2023/06/30 11:55:35;;;;;;;5.07;4.05;;;;;;;;;;6156449;23;20032;-91
2023/06/30 11:58:01;;;;;;;5.00;4.05;;;;;;;;;;6155157;23;20045;-90
2023/06/30 12:00:27;;;;;;;5.40;3.95;;;;;;;;;;6155724;23;20006;-91
2023/06/30 12:02:53;;;;;;;5.20;3.90;;;;;;;;;;6155455;23;20399;-91
2023/06/30 12:05:23;;;;;;;5.57;3.83;;;;;;;;;;6128952;23;20068;-88
2023/06/30 12:07:50;;;;;;;4.38;3.60;;;;;;;;;;6155825;23;20012;-91
2023/06/30 12:10:16;;;;;;;4.45;4.05;;;;;;;;;;6156106;23;20054;-91
2023/06/30 12:12:41;;;;;;;6.28;4.10;;;;;;;;;;6156163;23;20437;-91
2023/06/30 12:15:09;;;;;;;4.45;3.72;;;;;;;;;;6157710;23;20006;-91
2023/06/30 12:17:39;;;;;;;5.30;3.75;;;;;;;;;;6157334;23;20005;-91
2023/06/30 12:20:04;;;;;;;;;;;;;;;;;;6158713;23;20008;-90
2023/06/30 12:22:30;;;;;;;3.72;3.40;;;;;;;;;;6158741;23;19909;-91
2023/06/30 12:24:57;;;;;;;5.70;3.70;;;;;;;;;;6156869;23;20081;-90
2023/06/30 12:27:27;;;;;;;6.28;3.40;;;;;;;;;;6157924;23;20433;-89
2023/06/30 12:29:53;;;;;;;7.72;3.80;;;;;;;;;;6129655;23;20012;-89
2023/06/30 12:32:18;;;;;;;4.28;3.88;;;;;;;;;;6157120;23;20029;-90
2023/06/30 12:34:47;;;;;;;3.85;3.45;;;;;;;;;;6157584;23;20013;-89
2023/06/30 12:37:14;;;;;;;4.25;3.83;;;;;;;;;;6157673;23;20002;-90
2023/06/30 12:39:40;;;;;;;4.35;3.80;;;;;;;;;;6156750;23;20030;-90
2023/06/30 12:42:06;;;;;;;3.83;3.53;;;;;;;;;;6156980;23;20013;-90
2023/06/30 12:44:32;;;;;;;5.05;3.85;;;;;;;;;;6107146;23;20010;-90
2023/06/30 12:47:03;;;;;;;4.15;3.60;;;;;;;;;;6157317;23;20132;-89
2023/06/30 12:49:28;;;;;;;3.65;3.20;;;;;;;;;;6158190;23;19998;-90
2023/06/30 12:51:57;;;;;;;6.45;4.45;;;;;;;;;;6131923;23;20029;-90
2023/06/30 12:54:23;;;;;;;4.55;4.15;;;;;;;;;;6133288;23;20025;-90
2023/06/30 12:56:50;;;;;;;7.25;4.32;;;;;;;;;;6158149;23;20108;-88
2023/06/30 12:59:16;;;;;;;8.73;4.68;;;;;;;;;;6158024;23;20013;-89
2023/06/30 13:01:41;;;;;;;4.50;4.00;;;;;;;;;;6134400;23;19998;-89
2023/06/30 13:04:07;;;;;;;7.47;3.92;;;;;;;;;;6159589;23;20005;-90
2023/06/30 13:06:32;;;;;;;4.95;4.05;;;;;;;;;;6132187;23;20420;-89
2023/06/30 13:08:58;;;;;;;7.95;4.03;;;;;;;;;;6157654;23;20009;-90
2023/06/30 13:11:23;;;;;;;7.32;4.03;;;;;;;;;;6157861;23;20060;-90
2023/06/30 13:13:49;;;;;;;6.80;4.60;;;;;;;;;;6157804;23;20302;-89
2023/06/30 13:16:15;;;;;;;6.28;3.85;;;;;;;;;;6131486;23;20002;-90
2023/06/30 13:18:40;;;;;;;5.43;4.80;;;;;;;;;;6157709;23;20029;-90
2023/06/30 13:21:07;;;;;;;4.43;3.83;;;;;;;;;;6157757;23;20021;-89
2023/06/30 13:23:33;;;;;;;5.30;4.18;;;;;;;;;;6157615;23;20001;-89
2023/06/30 13:25:58;;;;;;;8.25;4.10;;;;;;;;;;6157691;23;19998;-90
2023/06/30 13:28:24;;;;;;;4.72;3.70;;;;;;;;;;6158109;23;20081;-90
2023/06/30 13:30:50;;;;;;;4.18;3.78;;;;;;;;;;6157901;23;20120;-89
2023/06/30 13:33:15;;;;;;;6.00;3.78;;;;;;;;;;6157760;23;20512;-89
2023/06/30 13:35:41;;;;;;;4.30;3.47;;;;;;;;;;6157706;23;20460;-90
2023/06/30 13:38:06;;;;;;;5.00;4.50;;;;;;;;;;6157471;23;20425;-90
2023/06/30 13:40:32;;;;;;;4.18;3.78;;;;;;;;;;6131625;23;20009;-91
2023/06/30 13:42:57;;;;;;;4.75;3.65;;;;;;;;;;6131588;23;20012;-90
2023/06/30 13:45:23;;;;;;;4.30;3.40;;;;;;;;;;6157679;23;20064;-90
2023/06/30 13:47:48;;;;;;;4.43;3.85;;;;;;;;;;6157374;23;20001;-90
2023/06/30 13:50:14;;;;;;;5.60;4.30;;;;;;;;;;6131707;23;20064;-90
2023/06/30 13:52:39;;;;;;;3.83;3.50;;;;;;;;;;6157445;23;20006;-90
2023/06/30 13:55:05;;;;;;;3.90;3.60;;;;;;;;;;6157402;23;20376;-87
2023/06/30 13:57:32;;;;;;;4.20;3.80;;;;;;;;;;6156373;23;20022;-87
2023/06/30 13:59:57;;;;;;;4.53;3.90;;;;;;;;;;6156677;23;20005;-87
2023/06/30 14:02:23;;;;;;;4.10;3.75;;;;;;;;;;6156970;23;20100;-88
2023/06/30 14:04:48;;;;;;;4.20;3.80;;;;;;;;;;6157450;23;20009;-87
2023/06/30 14:07:14;;;;;;;4.07;3.67;;;;;;;;;;6157254;23;20009;-87
2023/06/30 14:09:41;;;;;;;5.32;3.53;;;;;;;;;;6157596;23;20009;-89
2023/06/30 14:12:07;;;;;;;4.05;3.28;;;;;;;;;;6156869;23;20091;-86
2023/06/30 14:14:32;;;;;;;5.82;4.25;;;;;;;;;;6106405;23;20002;-90
2023/06/30 14:16:58;;;;;;;4.00;3.42;;;;;;;;;;6157332;23;20006;-90
2023/06/30 14:19:23;;;;;;;3.70;3.40;;;;;;;;;;6157157;23;20005;-89
2023/06/30 14:21:48;;;;;;;5.00;3.58;;;;;;;;;;6130693;23;20421;-89
2023/06/30 14:24:14;;;;;;;4.68;3.67;;;;;;;;;;6131207;23;20010;-90
2023/06/30 14:26:39;;;;;;;4.88;3.80;;;;;;;;;;6157093;23;20025;-90
2023/06/30 14:29:05;;;;;;;5.45;3.65;;;;;;;;;;6157031;23;20071;-90
2023/06/30 14:31:30;;;;;;;5.05;4.22;;;;;;;;;;6157163;23;20048;-89
2023/06/30 14:33:56;;;;;;;4.25;3.85;;;;;;;;;;6157280;23;20009;-89
2023/06/30 14:36:21;;;;;;;4.20;3.80;;;;;;;;;;6158333;23;20413;-90
2023/06/30 14:38:47;;;;;;;5.22;3.88;;;;;;;;;;6159175;23;20084;-90
2023/06/30 14:41:12;;;;;;;4.13;3.75;;;;;;;;;;6158527;23;20053;-90
2023/06/30 14:43:38;;;;;;;4.18;3.78;;;;;;;;;;6131186;23;20012;-89
2023/06/30 14:46:03;;;;;;;5.30;4.07;;;;;;;;;;6157008;23;20002;-90
2023/06/30 14:48:29;;;;;;;4.45;3.92;;;;;;;;;;6130728;23;20083;-90
2023/06/30 14:50:55;;;;;;;4.95;4.10;;;;;;;;;;6156958;23;20005;-90
2023/06/30 14:53:20;;;;;;;4.55;4.15;;;;;;;;;;6130559;23;20068;-89
2023/06/30 14:55:46;;;;;;;4.60;4.20;;;;;;;;;;6130875;23;20006;-89
2023/06/30 14:58:11;;;;;;;4.70;4.00;;;;;;;;;;6156762;23;20016;-90
2023/06/30 15:00:37;;;;;;;5.72;3.92;;;;;;;;;;6157202;23;20006;-88
2023/06/30 15:03:04;;;;;;;5.68;4.35;;;;;;;;;;6157193;23;20041;-90
2023/06/30 15:05:30;;;;;;;4.63;3.80;;;;;;;;;;6156824;23;20006;-86
2023/06/30 15:07:56;;;;;;;5.03;4.53;;;;;;;;;;6156722;23;20487;-90
2023/06/30 15:10:22;;;;;;;5.75;5.15;;;;;;;;;;6156766;23;20009;-89
2023/06/30 15:12:48;;;;;;;7.53;5.10;;;;;;;;;;6156799;23;19998;-90
2023/06/30 15:15:13;;;;;;;6.03;5.50;;;;;;;;;;6156724;23;20097;-90
2023/06/30 15:17:39;;;;;;;5.57;5.07;;;;;;;;;;6156600;23;20002;-89
2023/06/30 15:20:05;;;;;;;6.05;5.22;;;;;;;;;;6156865;23;20054;-89
2023/06/30 15:22:30;;;;;;;5.68;4.68;;;;;;;;;;6156555;23;20016;-90
2023/06/30 15:24:57;;;;;;;6.25;4.80;;;;;;;;;;6156855;23;20021;-89
2023/06/30 15:27:24;;;;;;;6.20;4.63;;;;;;;;;;6156649;23;20008;-91
2023/06/30 15:29:50;;;;;;;5.43;4.82;;;;;;;;;;6131238;23;20032;-87
2023/06/30 15:32:15;;;;;;;6.75;4.63;;;;;;;;;;6156358;23;20006;-90
2023/06/30 15:34:41;;;;;;;4.85;4.35;;;;;;;;;;6155808;23;20028;-88
2023/06/30 15:37:06;;;;;;;5.38;4.72;;;;;;;;;;6156459;23;20016;-90
2023/06/30 15:39:32;;;;;;;5.70;4.40;;;;;;;;;;6156710;23;20005;-90
2023/06/30 15:41:57;;;;;;;5.25;4.80;;;;;;;;;;6156442;23;20073;-89
2023/06/30 15:44:23;;;;;;;5.80;4.93;;;;;;;;;;6130430;23;20389;-91
2023/06/30 15:46:48;;;;;;;8.32;6.43;;;;;;;;;;6156423;23;20005;-91
2023/06/30 15:49:14;;;;;;;6.72;5.20;;;;;;;;;;6156309;23;20021;-89
2023/06/30 15:51:39;;;;;;;6.10;5.50;;;;;;;;;;6156565;23;20009;-90
2023/06/30 15:54:06;;;;;;;5.65;5.15;;;;;;;;;;6156825;23;20064;-91
2023/06/30 15:56:31;;;;;;;6.50;4.80;;;;;;;;;;6156450;23;20437;-90
2023/06/30 15:58:57;;;;;;;;;;;;;;;;;;6156811;23;19909;-91
2023/06/30 16:01:22;;;;;;;;;;;;;;;;;;6156967;23;19963;-87
2023/06/30 16:03:47;;;;;;;;;;;;;;;;;;6156891;23;20320;-88
2023/06/30 16:06:13;;;;;;;;;;;;;;;;;;6156898;23;19917;-89
2023/06/30 16:08:38;;;;;;;;;;;;;;;;;;6156690;23;19915;-86
2023/06/30 16:11:04;;;;;;;;;;;;;;;;;;6157282;23;20316;-86
2023/06/30 16:13:29;;;;;;;;;;;;;;;;;;6157713;23;19909;-89
2023/06/30 16:15:55;;;;;;;;;;;;;;;;;;6157793;23;19909;-90
2023/06/30 16:18:20;;;;;;;;;;;;;;;;;;6156938;23;19915;-89
2023/06/30 16:20:46;;;;;;;;;;;;;;;;;;6156734;23;19916;-89
2023/06/30 16:23:11;;;;;;;;;;;;;;;;;;6157502;23;19916;-89
2023/06/30 16:25:36;;;;;;;;;;;;;;;;;;6156942;23;20235;-88
2023/06/30 16:28:02;;;;;;;;;;;;;;;;;;6156933;23;19909;-87
2023/06/30 16:30:28;;;;;;;;;;;;;;;;;;6130459;23;19940;-88
2023/06/30 16:32:54;;;;;;;;;;;;;;;;;;6156815;23;19936;-90
2023/06/30 16:35:20;;;;;;;;;;;;;;;;;;6158612;23;19916;-88
2023/06/30 16:37:46;;;;;;;;;;;;;;;;;;6158709;23;19908;-87
2023/06/30 16:40:11;;;;;;;;;;;;;;;;;;6132771;23;19935;-89
2023/06/30 16:42:39;;;;;;;;;;;;;;;;;;6158835;23;19908;-90
2023/06/30 16:45:04;;;;;;;;;;;;;;;;;;6159038;23;19954;-88
2023/06/30 16:47:30;;;;;;;;;;;;;;;;;;6158361;23;19908;-89
2023/06/30 16:49:55;;;;;;;;;;;;;;;;;;6158550;23;19961;-90
2023/06/30 16:52:21;;;;;;;;;;;;;;;;;;6158948;23;20343;-89
2023/06/30 16:54:46;;;;;;;;;;;;;;;;;;6158724;23;19916;-91
2023/06/30 16:57:11;;;;;;;;;;;;;;;;;;6159773;23;19912;-91
2023/06/30 16:59:37;;;;;;;;;;;;;;;;;;6158786;23;20235;-90
2023/06/30 17:02:03;;;;;;;;;;;;;;;;;;6159871;23;19927;-89
2023/06/30 17:04:29;;;;;;;;;;;;;;;;;;6131742;23;19983;-89
2023/06/30 17:06:55;;;;;;;;;;;;;;;;;;6158876;23;19908;-90
2023/06/30 17:09:20;;;;;;;;;;;;;;;;;;6158676;23;19956;-90
2023/06/30 17:11:46;;;;;;;;;;;;;;;;;;6158609;23;19915;-90
2023/06/30 17:14:11;;;;;;;;;;;;;;;;;;6158559;23;19909;-90
2023/06/30 17:16:36;;;;;;;;;;;;;;;;;;6132153;23;20018;-89
2023/06/30 17:19:02;;;;;;;;;;;;;;;;;;6158687;23;20348;-91
2023/06/30 17:21:27;;;;;;;;;;;;;;;;;;6159835;23;19909;-90
2023/06/30 17:23:52;;;;;;;;;;;;;;;;;;6159683;23;19912;-89
2023/06/30 17:26:18;;;;;;;;;;;;;;;;;;6159321;23;19932;-89
2023/06/30 17:28:43;;;;;;;;;;;;;;;;;;6161012;23;20263;-87
2023/06/30 17:31:08;;;;;;;;;;;;;;;;;;6158954;23;19908;-89
2023/06/30 17:33:34;;;;;;;;;;;;;;;;;;6158781;23;20339;-88
2023/06/30 17:35:59;;;;;;;;;;;;;;;;;;6159036;23;19908;-90
2023/06/30 17:38:25;;;;;;;;;;;;;;;;;;6159828;23;19963;-92
2023/06/30 17:40:50;;;;;;;;;;;;;;;;;;6158770;23;19909;-87
2023/06/30 17:43:16;;;;;;;;;;;;;;;;;;6158816;23;20240;-90
2023/06/30 17:45:41;;;;;;;;;;;;;;;;;;6159328;23;20194;-91
2023/06/30 17:48:07;;;;;;;;;;;;;;;;;;6133302;23;20273;-90
2023/06/30 21:37:36;;;;;;;;;;;;;;;;;;6131409;23;20398;-83
2023/06/30 21:40:02;;;;;;;;;;;;;;;;;;6157374;23;19913;-83
2023/06/30 21:42:27;;;;;;;;;;;;;;;;;;6158837;23;19920;-83
2023/06/30 21:44:53;;;;;;;;;;;;;;;;;;6158555;23;20372;-82
2023/06/30 21:47:18;;;;;;;;;;;;;;;;;;6158921;23;19915;-83
2023/06/30 21:49:51;;;;;;;;;;;;;;;;;;6158484;23;19908;-83
